sensor_id;sensor_type;location;lat;lon;timestamp;P1;durP1;ratioP1;P2;durP2;ratioP2
54983;SDS011;40884;53.562;9.940;2024-03-02T00:00:54;21.23;;;15.53;;
54983;SDS011;40884;53.562;9.940;2024-03-02T00:01:54;21.90;;;15.77;;
54983;SDS011;40884;53.562;9.940;2024-03-02T00:02:54;20.50;;;15.90;;
54983;SDS011;40884;53.562;9.940;2024-03-02T00:03:54;20.93;;;15.57;;
54983;SDS011;40884;53.562;9.940;2024-03-02T00:04:54;21.13;;;16.20;;
54983;SDS011;40884;53.562;9.940;2024-03-02T00:05:54;20.37;;;16.17;;
54983;SDS011;40884;53.562;9.940;2024-03-02T00:06:54;20.47;;;15.20;;
54983;SDS011;40884;53.562;9.940;2024-03-02T00:07:56;21.73;;;15.87;;
54983;SDS011;40884;53.562;9.940;2024-03-02T00:08:57;21.33;;;16.60;;
54983;SDS011;40884;53.562;9.940;2024-03-02T00:09:57;19.37;;;15.10;;
54983;SDS011;40884;53.562;9.940;2024-03-02T00:10:58;21.23;;;16.57;;
54983;SDS011;40884;53.562;9.940;2024-03-02T00:11:59;19.60;;;15.63;;
54983;SDS011;40884;53.562;9.940;2024-03-02T00:12:59;20.40;;;15.20;;
54983;SDS011;40884;53.562;9.940;2024-03-02T00:13:59;20.47;;;15.47;;
54983;SDS011;40884;53.562;9.940;2024-03-02T00:14:59;22.97;;;16.60;;
54983;SDS011;40884;53.562;9.940;2024-03-02T00:15:59;22.97;;;16.17;;
54983;SDS011;40884;53.562;9.940;2024-03-02T00:16:59;22.67;;;16.53;;
54983;SDS011;40884;53.562;9.940;2024-03-02T00:17:59;20.90;;;16.17;;
54983;SDS011;40884;53.562;9.940;2024-03-02T00:19:03;21.10;;;16.10;;
54983;SDS011;40884;53.562;9.940;2024-03-02T00:20:05;21.17;;;15.77;;
54983;SDS011;40884;53.562;9.940;2024-03-02T00:21:09;20.90;;;15.60;;
54983;SDS011;40884;53.562;9.940;2024-03-02T00:22:09;19.73;;;14.90;;
54983;SDS011;40884;53.562;9.940;2024-03-02T00:23:10;20.77;;;15.17;;
54983;SDS011;40884;53.562;9.940;2024-03-02T00:24:31;21.63;;;15.53;;
54983;SDS011;40884;53.562;9.940;2024-03-02T00:25:39;20.23;;;15.70;;
54983;SDS011;40884;53.562;9.940;2024-03-02T00:26:39;19.87;;;15.27;;
54983;SDS011;40884;53.562;9.940;2024-03-02T00:27:39;19.90;;;15.30;;
54983;SDS011;40884;53.562;9.940;2024-03-02T00:28:40;22.33;;;15.53;;
54983;SDS011;40884;53.562;9.940;2024-03-02T00:29:40;20.77;;;15.30;;
54983;SDS011;40884;53.562;9.940;2024-03-02T00:31:43;19.23;;;15.57;;
54983;SDS011;40884;53.562;9.940;2024-03-02T00:32:43;21.40;;;16.23;;
54983;SDS011;40884;53.562;9.940;2024-03-02T00:33:44;18.97;;;14.33;;
54983;SDS011;40884;53.562;9.940;2024-03-02T00:34:45;18.77;;;15.33;;
54983;SDS011;40884;53.562;9.940;2024-03-02T00:35:45;21.63;;;15.00;;
54983;SDS011;40884;53.562;9.940;2024-03-02T00:36:45;20.40;;;15.53;;
54983;SDS011;40884;53.562;9.940;2024-03-02T00:37:45;21.30;;;15.10;;
54983;SDS011;40884;53.562;9.940;2024-03-02T00:38:49;19.23;;;14.93;;
54983;SDS011;40884;53.562;9.940;2024-03-02T00:39:49;20.97;;;15.23;;
54983;SDS011;40884;53.562;9.940;2024-03-02T00:40:49;19.93;;;14.37;;
54983;SDS011;40884;53.562;9.940;2024-03-02T00:41:50;19.53;;;15.00;;
54983;SDS011;40884;53.562;9.940;2024-03-02T00:42:50;19.07;;;14.77;;
54983;SDS011;40884;53.562;9.940;2024-03-02T00:44:03;19.57;;;14.67;;
54983;SDS011;40884;53.562;9.940;2024-03-02T00:45:06;21.83;;;16.23;;
54983;SDS011;40884;53.562;9.940;2024-03-02T00:46:07;20.50;;;15.57;;
54983;SDS011;40884;53.562;9.940;2024-03-02T00:47:07;21.40;;;15.83;;
54983;SDS011;40884;53.562;9.940;2024-03-02T00:48:07;21.10;;;15.53;;
54983;SDS011;40884;53.562;9.940;2024-03-02T00:50:12;21.33;;;16.00;;
54983;SDS011;40884;53.562;9.940;2024-03-02T00:51:13;21.40;;;16.13;;
54983;SDS011;40884;53.562;9.940;2024-03-02T00:52:13;22.70;;;15.87;;
54983;SDS011;40884;53.562;9.940;2024-03-02T00:53:13;20.73;;;16.33;;
54983;SDS011;40884;53.562;9.940;2024-03-02T00:54:14;23.87;;;17.00;;
54983;SDS011;40884;53.562;9.940;2024-03-02T00:55:14;23.07;;;17.33;;
54983;SDS011;40884;53.562;9.940;2024-03-02T00:56:14;21.13;;;17.20;;
54983;SDS011;40884;53.562;9.940;2024-03-02T00:57:14;21.60;;;16.83;;
54983;SDS011;40884;53.562;9.940;2024-03-02T00:58:15;21.83;;;16.50;;
54983;SDS011;40884;53.562;9.940;2024-03-02T00:59:15;23.03;;;17.80;;
54983;SDS011;40884;53.562;9.940;2024-03-02T01:00:15;22.17;;;17.17;;
54983;SDS011;40884;53.562;9.940;2024-03-02T01:01:15;25.23;;;17.97;;
54983;SDS011;40884;53.562;9.940;2024-03-02T01:02:15;23.03;;;17.40;;
54983;SDS011;40884;53.562;9.940;2024-03-02T01:03:16;23.13;;;17.50;;
54983;SDS011;40884;53.562;9.940;2024-03-02T01:04:16;25.27;;;18.80;;
54983;SDS011;40884;53.562;9.940;2024-03-02T01:05:16;27.40;;;18.27;;
54983;SDS011;40884;53.562;9.940;2024-03-02T01:06:16;27.50;;;19.07;;
54983;SDS011;40884;53.562;9.940;2024-03-02T01:07:16;24.03;;;19.00;;
54983;SDS011;40884;53.562;9.940;2024-03-02T01:08:16;25.30;;;18.30;;
54983;SDS011;40884;53.562;9.940;2024-03-02T01:09:16;28.77;;;19.63;;
54983;SDS011;40884;53.562;9.940;2024-03-02T01:10:16;26.77;;;18.93;;
54983;SDS011;40884;53.562;9.940;2024-03-02T01:11:17;23.50;;;17.33;;
54983;SDS011;40884;53.562;9.940;2024-03-02T01:12:17;23.40;;;17.63;;
54983;SDS011;40884;53.562;9.940;2024-03-02T01:13:17;27.87;;;20.90;;
54983;SDS011;40884;53.562;9.940;2024-03-02T01:14:17;28.50;;;20.40;;
54983;SDS011;40884;53.562;9.940;2024-03-02T01:15:17;29.70;;;20.57;;
54983;SDS011;40884;53.562;9.940;2024-03-02T01:16:17;31.93;;;20.70;;
54983;SDS011;40884;53.562;9.940;2024-03-02T01:17:18;26.80;;;20.30;;
54983;SDS011;40884;53.562;9.940;2024-03-02T01:18:18;29.70;;;21.00;;
54983;SDS011;40884;53.562;9.940;2024-03-02T01:19:18;27.90;;;20.77;;
54983;SDS011;40884;53.562;9.940;2024-03-02T01:20:18;30.33;;;21.30;;
54983;SDS011;40884;53.562;9.940;2024-03-02T01:21:18;31.13;;;22.13;;
54983;SDS011;40884;53.562;9.940;2024-03-02T01:22:18;31.67;;;22.00;;
54983;SDS011;40884;53.562;9.940;2024-03-02T01:23:19;29.83;;;21.40;;
54983;SDS011;40884;53.562;9.940;2024-03-02T01:24:19;30.43;;;21.30;;
54983;SDS011;40884;53.562;9.940;2024-03-02T01:25:19;27.57;;;20.43;;
54983;SDS011;40884;53.562;9.940;2024-03-02T01:26:19;29.43;;;22.33;;
54983;SDS011;40884;53.562;9.940;2024-03-02T01:27:19;29.50;;;21.37;;
54983;SDS011;40884;53.562;9.940;2024-03-02T01:28:19;29.57;;;21.40;;
54983;SDS011;40884;53.562;9.940;2024-03-02T01:29:19;31.07;;;21.73;;
54983;SDS011;40884;53.562;9.940;2024-03-02T01:30:19;31.27;;;21.87;;
54983;SDS011;40884;53.562;9.940;2024-03-02T01:31:20;30.17;;;21.30;;
54983;SDS011;40884;53.562;9.940;2024-03-02T01:32:20;30.77;;;22.10;;
54983;SDS011;40884;53.562;9.940;2024-03-02T01:33:20;28.93;;;22.27;;
54983;SDS011;40884;53.562;9.940;2024-03-02T01:34:20;32.80;;;21.70;;
54983;SDS011;40884;53.562;9.940;2024-03-02T01:35:20;30.17;;;22.10;;
54983;SDS011;40884;53.562;9.940;2024-03-02T01:36:20;36.33;;;23.83;;
54983;SDS011;40884;53.562;9.940;2024-03-02T01:37:20;33.53;;;22.83;;
54983;SDS011;40884;53.562;9.940;2024-03-02T01:38:20;32.73;;;23.40;;
54983;SDS011;40884;53.562;9.940;2024-03-02T01:39:20;33.93;;;23.20;;
54983;SDS011;40884;53.562;9.940;2024-03-02T01:40:21;30.13;;;22.60;;
54983;SDS011;40884;53.562;9.940;2024-03-02T01:41:21;35.87;;;23.53;;
54983;SDS011;40884;53.562;9.940;2024-03-02T01:42:21;31.20;;;22.53;;
54983;SDS011;40884;53.562;9.940;2024-03-02T01:43:21;31.47;;;23.63;;
54983;SDS011;40884;53.562;9.940;2024-03-02T01:44:21;35.23;;;24.57;;
54983;SDS011;40884;53.562;9.940;2024-03-02T01:45:21;33.67;;;24.43;;
54983;SDS011;40884;53.562;9.940;2024-03-02T01:46:22;35.47;;;24.20;;
54983;SDS011;40884;53.562;9.940;2024-03-02T01:47:22;34.07;;;24.33;;
54983;SDS011;40884;53.562;9.940;2024-03-02T01:48:22;31.97;;;23.67;;
54983;SDS011;40884;53.562;9.940;2024-03-02T01:49:22;34.50;;;23.83;;
54983;SDS011;40884;53.562;9.940;2024-03-02T01:50:29;34.07;;;23.73;;
54983;SDS011;40884;53.562;9.940;2024-03-02T01:51:29;34.13;;;24.67;;
54983;SDS011;40884;53.562;9.940;2024-03-02T01:52:29;35.50;;;24.57;;
54983;SDS011;40884;53.562;9.940;2024-03-02T01:53:29;34.70;;;24.73;;
54983;SDS011;40884;53.562;9.940;2024-03-02T01:54:29;33.37;;;23.53;;
54983;SDS011;40884;53.562;9.940;2024-03-02T01:55:29;36.73;;;24.57;;
54983;SDS011;40884;53.562;9.940;2024-03-02T01:56:30;36.13;;;24.37;;
54983;SDS011;40884;53.562;9.940;2024-03-02T01:57:30;35.87;;;25.03;;
54983;SDS011;40884;53.562;9.940;2024-03-02T01:58:30;35.40;;;25.23;;
54983;SDS011;40884;53.562;9.940;2024-03-02T01:59:30;35.60;;;25.67;;
54983;SDS011;40884;53.562;9.940;2024-03-02T02:00:30;36.50;;;24.90;;
54983;SDS011;40884;53.562;9.940;2024-03-02T02:01:30;37.07;;;25.10;;
54983;SDS011;40884;53.562;9.940;2024-03-02T02:02:30;37.57;;;24.93;;
54983;SDS011;40884;53.562;9.940;2024-03-02T02:03:31;36.23;;;25.87;;
54983;SDS011;40884;53.562;9.940;2024-03-02T02:04:31;36.63;;;24.50;;
54983;SDS011;40884;53.562;9.940;2024-03-02T02:05:31;38.87;;;25.77;;
54983;SDS011;40884;53.562;9.940;2024-03-02T02:06:31;36.90;;;25.67;;
54983;SDS011;40884;53.562;9.940;2024-03-02T02:07:32;35.87;;;25.17;;
54983;SDS011;40884;53.562;9.940;2024-03-02T02:08:32;36.63;;;25.97;;
54983;SDS011;40884;53.562;9.940;2024-03-02T02:09:32;36.10;;;25.47;;
54983;SDS011;40884;53.562;9.940;2024-03-02T02:10:32;35.90;;;25.37;;
54983;SDS011;40884;53.562;9.940;2024-03-02T02:11:32;35.67;;;25.20;;
54983;SDS011;40884;53.562;9.940;2024-03-02T02:12:32;35.60;;;25.20;;
54983;SDS011;40884;53.562;9.940;2024-03-02T02:13:32;38.23;;;26.03;;
54983;SDS011;40884;53.562;9.940;2024-03-02T02:14:33;38.80;;;27.00;;
54983;SDS011;40884;53.562;9.940;2024-03-02T02:15:33;40.17;;;26.70;;
54983;SDS011;40884;53.562;9.940;2024-03-02T02:16:33;35.57;;;25.13;;
54983;SDS011;40884;53.562;9.940;2024-03-02T02:17:33;40.63;;;26.40;;
54983;SDS011;40884;53.562;9.940;2024-03-02T02:18:33;36.17;;;25.53;;
54983;SDS011;40884;53.562;9.940;2024-03-02T02:19:34;37.67;;;26.87;;
54983;SDS011;40884;53.562;9.940;2024-03-02T02:20:34;41.73;;;25.90;;
54983;SDS011;40884;53.562;9.940;2024-03-02T02:21:34;35.53;;;25.37;;
54983;SDS011;40884;53.562;9.940;2024-03-02T02:22:34;39.67;;;25.43;;
54983;SDS011;40884;53.562;9.940;2024-03-02T02:23:34;38.90;;;25.97;;
54983;SDS011;40884;53.562;9.940;2024-03-02T02:24:34;37.50;;;26.23;;
54983;SDS011;40884;53.562;9.940;2024-03-02T02:25:35;38.43;;;27.17;;
54983;SDS011;40884;53.562;9.940;2024-03-02T02:26:35;37.63;;;26.10;;
54983;SDS011;40884;53.562;9.940;2024-03-02T02:27:35;37.67;;;25.87;;
54983;SDS011;40884;53.562;9.940;2024-03-02T02:28:35;39.47;;;27.00;;
54983;SDS011;40884;53.562;9.940;2024-03-02T02:29:35;39.50;;;26.27;;
54983;SDS011;40884;53.562;9.940;2024-03-02T02:30:36;37.83;;;27.17;;
54983;SDS011;40884;53.562;9.940;2024-03-02T02:31:37;39.43;;;28.10;;
54983;SDS011;40884;53.562;9.940;2024-03-02T02:32:37;39.90;;;26.60;;
54983;SDS011;40884;53.562;9.940;2024-03-02T02:33:38;41.27;;;27.33;;
54983;SDS011;40884;53.562;9.940;2024-03-02T02:34:39;37.00;;;27.20;;
54983;SDS011;40884;53.562;9.940;2024-03-02T02:35:39;38.77;;;25.60;;
54983;SDS011;40884;53.562;9.940;2024-03-02T02:36:39;40.50;;;26.50;;
54983;SDS011;40884;53.562;9.940;2024-03-02T02:37:39;40.43;;;26.70;;
54983;SDS011;40884;53.562;9.940;2024-03-02T02:38:44;41.17;;;27.77;;
54983;SDS011;40884;53.562;9.940;2024-03-02T02:39:46;40.27;;;28.57;;
54983;SDS011;40884;53.562;9.940;2024-03-02T02:40:46;38.43;;;26.70;;
54983;SDS011;40884;53.562;9.940;2024-03-02T02:41:46;38.97;;;27.23;;
54983;SDS011;40884;53.562;9.940;2024-03-02T02:42:46;38.23;;;26.67;;
54983;SDS011;40884;53.562;9.940;2024-03-02T02:43:47;39.27;;;26.57;;
54983;SDS011;40884;53.562;9.940;2024-03-02T02:44:47;38.63;;;26.73;;
54983;SDS011;40884;53.562;9.940;2024-03-02T02:45:47;37.30;;;25.70;;
54983;SDS011;40884;53.562;9.940;2024-03-02T02:46:47;39.73;;;25.13;;
54983;SDS011;40884;53.562;9.940;2024-03-02T02:47:47;35.23;;;24.40;;
54983;SDS011;40884;53.562;9.940;2024-03-02T02:48:47;38.17;;;25.80;;
54983;SDS011;40884;53.562;9.940;2024-03-02T02:49:47;35.17;;;23.87;;
54983;SDS011;40884;53.562;9.940;2024-03-02T02:50:47;39.63;;;25.80;;
54983;SDS011;40884;53.562;9.940;2024-03-02T02:51:47;34.07;;;24.20;;
54983;SDS011;40884;53.562;9.940;2024-03-02T02:52:48;34.53;;;25.40;;
54983;SDS011;40884;53.562;9.940;2024-03-02T02:53:48;33.23;;;23.43;;
54983;SDS011;40884;53.562;9.940;2024-03-02T02:54:48;35.33;;;24.87;;
54983;SDS011;40884;53.562;9.940;2024-03-02T02:55:48;32.80;;;23.90;;
54983;SDS011;40884;53.562;9.940;2024-03-02T02:56:48;34.43;;;24.47;;
54983;SDS011;40884;53.562;9.940;2024-03-02T02:57:48;35.30;;;24.60;;
54983;SDS011;40884;53.562;9.940;2024-03-02T02:58:48;34.27;;;24.90;;
54983;SDS011;40884;53.562;9.940;2024-03-02T02:59:48;33.60;;;24.27;;
54983;SDS011;40884;53.562;9.940;2024-03-02T03:00:49;34.43;;;23.53;;
54983;SDS011;40884;53.562;9.940;2024-03-02T03:01:49;33.07;;;22.70;;
54983;SDS011;40884;53.562;9.940;2024-03-02T03:02:51;34.90;;;24.47;;
54983;SDS011;40884;53.562;9.940;2024-03-02T03:03:51;35.87;;;24.50;;
54983;SDS011;40884;53.562;9.940;2024-03-02T03:04:51;32.90;;;23.53;;
54983;SDS011;40884;53.562;9.940;2024-03-02T03:05:51;32.43;;;24.17;;
54983;SDS011;40884;53.562;9.940;2024-03-02T03:06:51;35.27;;;23.77;;
54983;SDS011;40884;53.562;9.940;2024-03-02T03:07:51;35.83;;;25.17;;
54983;SDS011;40884;53.562;9.940;2024-03-02T03:08:51;34.30;;;25.00;;
54983;SDS011;40884;53.562;9.940;2024-03-02T03:09:52;37.50;;;26.20;;
54983;SDS011;40884;53.562;9.940;2024-03-02T03:10:52;35.90;;;25.87;;
54983;SDS011;40884;53.562;9.940;2024-03-02T03:11:52;37.43;;;25.73;;
54983;SDS011;40884;53.562;9.940;2024-03-02T03:12:52;31.20;;;23.33;;
54983;SDS011;40884;53.562;9.940;2024-03-02T03:13:53;34.57;;;25.07;;
54983;SDS011;40884;53.562;9.940;2024-03-02T03:14:53;36.33;;;23.90;;
54983;SDS011;40884;53.562;9.940;2024-03-02T03:15:53;33.77;;;24.63;;
54983;SDS011;40884;53.562;9.940;2024-03-02T03:16:53;37.60;;;24.77;;
54983;SDS011;40884;53.562;9.940;2024-03-02T03:17:53;34.73;;;24.47;;
54983;SDS011;40884;53.562;9.940;2024-03-02T03:18:53;34.37;;;24.57;;
54983;SDS011;40884;53.562;9.940;2024-03-02T03:19:53;35.67;;;25.93;;
54983;SDS011;40884;53.562;9.940;2024-03-02T03:20:53;35.50;;;25.57;;
54983;SDS011;40884;53.562;9.940;2024-03-02T03:21:53;35.13;;;24.70;;
54983;SDS011;40884;53.562;9.940;2024-03-02T03:22:54;32.83;;;23.97;;
54983;SDS011;40884;53.562;9.940;2024-03-02T03:23:54;35.80;;;25.00;;
54983;SDS011;40884;53.562;9.940;2024-03-02T03:24:54;35.37;;;25.73;;
54983;SDS011;40884;53.562;9.940;2024-03-02T03:25:54;37.17;;;24.90;;
54983;SDS011;40884;53.562;9.940;2024-03-02T03:26:54;35.57;;;24.63;;
54983;SDS011;40884;53.562;9.940;2024-03-02T03:27:54;33.17;;;24.00;;
54983;SDS011;40884;53.562;9.940;2024-03-02T03:28:54;34.20;;;23.80;;
54983;SDS011;40884;53.562;9.940;2024-03-02T03:29:54;37.17;;;25.67;;
54983;SDS011;40884;53.562;9.940;2024-03-02T03:30:55;36.00;;;24.73;;
54983;SDS011;40884;53.562;9.940;2024-03-02T03:31:55;31.53;;;24.20;;
54983;SDS011;40884;53.562;9.940;2024-03-02T03:32:55;34.87;;;24.30;;
54983;SDS011;40884;53.562;9.940;2024-03-02T03:33:55;34.43;;;24.03;;
54983;SDS011;40884;53.562;9.940;2024-03-02T03:34:55;34.27;;;24.57;;
54983;SDS011;40884;53.562;9.940;2024-03-02T03:35:55;36.53;;;25.20;;
54983;SDS011;40884;53.562;9.940;2024-03-02T03:36:55;35.13;;;24.43;;
54983;SDS011;40884;53.562;9.940;2024-03-02T03:37:55;36.70;;;26.00;;
54983;SDS011;40884;53.562;9.940;2024-03-02T03:38:56;37.17;;;24.80;;
54983;SDS011;40884;53.562;9.940;2024-03-02T03:39:56;33.30;;;24.00;;
54983;SDS011;40884;53.562;9.940;2024-03-02T03:40:56;36.17;;;25.63;;
54983;SDS011;40884;53.562;9.940;2024-03-02T03:41:56;36.50;;;25.53;;
54983;SDS011;40884;53.562;9.940;2024-03-02T03:42:56;35.23;;;25.43;;
54983;SDS011;40884;53.562;9.940;2024-03-02T03:43:56;34.13;;;24.80;;
54983;SDS011;40884;53.562;9.940;2024-03-02T03:44:56;32.47;;;24.43;;
54983;SDS011;40884;53.562;9.940;2024-03-02T03:45:56;33.40;;;24.07;;
54983;SDS011;40884;53.562;9.940;2024-03-02T03:46:56;35.37;;;25.13;;
54983;SDS011;40884;53.562;9.940;2024-03-02T03:47:57;32.50;;;24.23;;
54983;SDS011;40884;53.562;9.940;2024-03-02T03:48:57;33.13;;;25.33;;
54983;SDS011;40884;53.562;9.940;2024-03-02T03:49:57;39.63;;;26.10;;
54983;SDS011;40884;53.562;9.940;2024-03-02T03:50:57;35.73;;;25.43;;
54983;SDS011;40884;53.562;9.940;2024-03-02T03:51:57;35.60;;;25.57;;
54983;SDS011;40884;53.562;9.940;2024-03-02T03:52:57;34.00;;;23.30;;
54983;SDS011;40884;53.562;9.940;2024-03-02T03:53:57;36.23;;;25.50;;
54983;SDS011;40884;53.562;9.940;2024-03-02T03:54:58;32.27;;;23.47;;
54983;SDS011;40884;53.562;9.940;2024-03-02T03:55:58;32.80;;;23.93;;
54983;SDS011;40884;53.562;9.940;2024-03-02T03:56:58;37.10;;;25.67;;
54983;SDS011;40884;53.562;9.940;2024-03-02T03:57:58;33.70;;;23.97;;
54983;SDS011;40884;53.562;9.940;2024-03-02T03:58:58;32.63;;;23.93;;
54983;SDS011;40884;53.562;9.940;2024-03-02T03:59:58;35.00;;;24.07;;
54983;SDS011;40884;53.562;9.940;2024-03-02T04:00:58;34.40;;;24.80;;
54983;SDS011;40884;53.562;9.940;2024-03-02T04:01:58;34.53;;;24.67;;
54983;SDS011;40884;53.562;9.940;2024-03-02T04:02:58;35.17;;;23.57;;
54983;SDS011;40884;53.562;9.940;2024-03-02T04:03:59;34.70;;;24.90;;
54983;SDS011;40884;53.562;9.940;2024-03-02T04:04:59;37.00;;;23.47;;
54983;SDS011;40884;53.562;9.940;2024-03-02T04:05:59;35.83;;;24.67;;
54983;SDS011;40884;53.562;9.940;2024-03-02T04:06:59;35.83;;;25.07;;
54983;SDS011;40884;53.562;9.940;2024-03-02T04:07:59;34.40;;;25.20;;
54983;SDS011;40884;53.562;9.940;2024-03-02T04:08:59;33.83;;;24.17;;
54983;SDS011;40884;53.562;9.940;2024-03-02T04:09:59;30.37;;;23.40;;
54983;SDS011;40884;53.562;9.940;2024-03-02T04:11:00;32.60;;;23.90;;
54983;SDS011;40884;53.562;9.940;2024-03-02T04:12:00;32.30;;;24.73;;
54983;SDS011;40884;53.562;9.940;2024-03-02T04:13:00;34.67;;;24.43;;
54983;SDS011;40884;53.562;9.940;2024-03-02T04:14:00;33.53;;;24.27;;
54983;SDS011;40884;53.562;9.940;2024-03-02T04:15:00;32.43;;;24.47;;
54983;SDS011;40884;53.562;9.940;2024-03-02T04:16:00;34.37;;;24.50;;
54983;SDS011;40884;53.562;9.940;2024-03-02T04:17:00;35.47;;;24.10;;
54983;SDS011;40884;53.562;9.940;2024-03-02T04:18:00;34.47;;;24.17;;
54983;SDS011;40884;53.562;9.940;2024-03-02T04:19:00;33.90;;;24.80;;
54983;SDS011;40884;53.562;9.940;2024-03-02T04:20:01;34.87;;;24.23;;
54983;SDS011;40884;53.562;9.940;2024-03-02T04:21:01;33.07;;;22.83;;
54983;SDS011;40884;53.562;9.940;2024-03-02T04:22:01;35.03;;;24.67;;
54983;SDS011;40884;53.562;9.940;2024-03-02T04:23:01;34.20;;;25.27;;
54983;SDS011;40884;53.562;9.940;2024-03-02T04:24:01;32.67;;;24.77;;
54983;SDS011;40884;53.562;9.940;2024-03-02T04:25:01;34.77;;;24.07;;
54983;SDS011;40884;53.562;9.940;2024-03-02T04:26:02;36.43;;;23.83;;
54983;SDS011;40884;53.562;9.940;2024-03-02T04:27:02;31.80;;;23.50;;
54983;SDS011;40884;53.562;9.940;2024-03-02T04:28:02;33.63;;;23.93;;
54983;SDS011;40884;53.562;9.940;2024-03-02T04:29:02;32.60;;;23.97;;
54983;SDS011;40884;53.562;9.940;2024-03-02T04:30:03;33.67;;;23.20;;
54983;SDS011;40884;53.562;9.940;2024-03-02T04:31:03;34.83;;;24.77;;
54983;SDS011;40884;53.562;9.940;2024-03-02T04:32:03;32.53;;;23.83;;
54983;SDS011;40884;53.562;9.940;2024-03-02T04:33:04;32.10;;;22.83;;
54983;SDS011;40884;53.562;9.940;2024-03-02T04:34:04;35.73;;;23.57;;
54983;SDS011;40884;53.562;9.940;2024-03-02T04:35:04;34.50;;;22.90;;
54983;SDS011;40884;53.562;9.940;2024-03-02T04:36:05;35.13;;;24.10;;
54983;SDS011;40884;53.562;9.940;2024-03-02T04:37:05;32.53;;;24.20;;
54983;SDS011;40884;53.562;9.940;2024-03-02T04:38:05;33.40;;;24.00;;
54983;SDS011;40884;53.562;9.940;2024-03-02T04:39:05;31.23;;;23.43;;
54983;SDS011;40884;53.562;9.940;2024-03-02T04:40:05;32.17;;;24.03;;
54983;SDS011;40884;53.562;9.940;2024-03-02T04:41:06;34.30;;;23.97;;
54983;SDS011;40884;53.562;9.940;2024-03-02T04:42:06;30.80;;;22.73;;
54983;SDS011;40884;53.562;9.940;2024-03-02T04:43:06;31.43;;;22.93;;
54983;SDS011;40884;53.562;9.940;2024-03-02T04:44:06;32.03;;;23.50;;
54983;SDS011;40884;53.562;9.940;2024-03-02T04:45:06;33.30;;;23.47;;
54983;SDS011;40884;53.562;9.940;2024-03-02T04:46:07;33.30;;;24.73;;
54983;SDS011;40884;53.562;9.940;2024-03-02T04:47:07;32.60;;;22.07;;
54983;SDS011;40884;53.562;9.940;2024-03-02T04:48:07;33.07;;;23.33;;
54983;SDS011;40884;53.562;9.940;2024-03-02T04:49:07;32.70;;;23.30;;
54983;SDS011;40884;53.562;9.940;2024-03-02T04:50:07;33.77;;;23.60;;
54983;SDS011;40884;53.562;9.940;2024-03-02T04:51:07;30.33;;;22.70;;
54983;SDS011;40884;53.562;9.940;2024-03-02T04:52:07;32.93;;;23.70;;
54983;SDS011;40884;53.562;9.940;2024-03-02T04:53:07;34.20;;;23.73;;
54983;SDS011;40884;53.562;9.940;2024-03-02T04:54:08;32.67;;;23.33;;
54983;SDS011;40884;53.562;9.940;2024-03-02T04:55:08;36.53;;;25.30;;
54983;SDS011;40884;53.562;9.940;2024-03-02T04:56:08;32.67;;;24.30;;
54983;SDS011;40884;53.562;9.940;2024-03-02T04:57:08;34.23;;;24.27;;
54983;SDS011;40884;53.562;9.940;2024-03-02T04:58:08;32.67;;;23.57;;
54983;SDS011;40884;53.562;9.940;2024-03-02T04:59:08;30.47;;;23.00;;
54983;SDS011;40884;53.562;9.940;2024-03-02T05:00:09;34.67;;;24.33;;
54983;SDS011;40884;53.562;9.940;2024-03-02T05:01:09;33.57;;;24.47;;
54983;SDS011;40884;53.562;9.940;2024-03-02T05:02:09;32.53;;;23.67;;
54983;SDS011;40884;53.562;9.940;2024-03-02T05:03:09;32.47;;;24.53;;
54983;SDS011;40884;53.562;9.940;2024-03-02T05:04:09;34.13;;;23.50;;
54983;SDS011;40884;53.562;9.940;2024-03-02T05:05:10;36.50;;;23.83;;
54983;SDS011;40884;53.562;9.940;2024-03-02T05:06:10;35.30;;;24.23;;
54983;SDS011;40884;53.562;9.940;2024-03-02T05:07:10;31.47;;;23.63;;
54983;SDS011;40884;53.562;9.940;2024-03-02T05:08:10;29.80;;;22.63;;
54983;SDS011;40884;53.562;9.940;2024-03-02T05:09:10;30.53;;;22.53;;
54983;SDS011;40884;53.562;9.940;2024-03-02T05:10:10;32.67;;;23.40;;
54983;SDS011;40884;53.562;9.940;2024-03-02T05:11:10;33.03;;;22.20;;
54983;SDS011;40884;53.562;9.940;2024-03-02T05:12:10;34.30;;;24.00;;
54983;SDS011;40884;53.562;9.940;2024-03-02T05:13:11;35.40;;;24.80;;
54983;SDS011;40884;53.562;9.940;2024-03-02T05:14:11;32.90;;;23.53;;
54983;SDS011;40884;53.562;9.940;2024-03-02T05:15:11;34.27;;;24.00;;
54983;SDS011;40884;53.562;9.940;2024-03-02T05:16:12;31.40;;;23.43;;
54983;SDS011;40884;53.562;9.940;2024-03-02T05:17:12;32.23;;;23.37;;
54983;SDS011;40884;53.562;9.940;2024-03-02T05:18:12;33.53;;;24.63;;
54983;SDS011;40884;53.562;9.940;2024-03-02T05:19:12;31.13;;;24.03;;
54983;SDS011;40884;53.562;9.940;2024-03-02T05:20:12;34.30;;;24.77;;
54983;SDS011;40884;53.562;9.940;2024-03-02T05:21:12;30.47;;;22.90;;
54983;SDS011;40884;53.562;9.940;2024-03-02T05:22:12;32.60;;;22.97;;
54983;SDS011;40884;53.562;9.940;2024-03-02T05:23:12;34.00;;;24.40;;
54983;SDS011;40884;53.562;9.940;2024-03-02T05:24:13;32.60;;;23.77;;
54983;SDS011;40884;53.562;9.940;2024-03-02T05:25:13;33.43;;;23.90;;
54983;SDS011;40884;53.562;9.940;2024-03-02T05:26:13;33.73;;;24.53;;
54983;SDS011;40884;53.562;9.940;2024-03-02T05:27:13;29.33;;;22.83;;
54983;SDS011;40884;53.562;9.940;2024-03-02T05:28:13;31.27;;;22.87;;
54983;SDS011;40884;53.562;9.940;2024-03-02T05:29:13;32.40;;;23.67;;
54983;SDS011;40884;53.562;9.940;2024-03-02T05:30:13;30.90;;;23.90;;
54983;SDS011;40884;53.562;9.940;2024-03-02T05:31:14;30.93;;;23.03;;
54983;SDS011;40884;53.562;9.940;2024-03-02T05:32:15;31.17;;;22.83;;
54983;SDS011;40884;53.562;9.940;2024-03-02T05:33:15;32.40;;;23.03;;
54983;SDS011;40884;53.562;9.940;2024-03-02T05:34:15;31.97;;;23.47;;
54983;SDS011;40884;53.562;9.940;2024-03-02T05:35:15;31.90;;;23.87;;
54983;SDS011;40884;53.562;9.940;2024-03-02T05:36:15;31.23;;;23.60;;
54983;SDS011;40884;53.562;9.940;2024-03-02T05:37:15;32.33;;;23.20;;
54983;SDS011;40884;53.562;9.940;2024-03-02T05:38:15;32.27;;;23.63;;
54983;SDS011;40884;53.562;9.940;2024-03-02T05:39:15;29.60;;;22.07;;
54983;SDS011;40884;53.562;9.940;2024-03-02T05:40:16;31.57;;;22.30;;
54983;SDS011;40884;53.562;9.940;2024-03-02T05:41:16;31.43;;;23.40;;
54983;SDS011;40884;53.562;9.940;2024-03-02T05:42:16;30.07;;;23.27;;
54983;SDS011;40884;53.562;9.940;2024-03-02T05:43:16;36.73;;;23.13;;
54983;SDS011;40884;53.562;9.940;2024-03-02T05:44:16;31.87;;;21.70;;
54983;SDS011;40884;53.562;9.940;2024-03-02T05:45:16;30.37;;;23.10;;
54983;SDS011;40884;53.562;9.940;2024-03-02T05:46:16;31.57;;;23.10;;
54983;SDS011;40884;53.562;9.940;2024-03-02T05:47:16;32.07;;;23.47;;
54983;SDS011;40884;53.562;9.940;2024-03-02T05:48:17;31.87;;;22.40;;
54983;SDS011;40884;53.562;9.940;2024-03-02T05:49:17;31.37;;;22.73;;
54983;SDS011;40884;53.562;9.940;2024-03-02T05:50:17;31.67;;;22.67;;
54983;SDS011;40884;53.562;9.940;2024-03-02T05:51:17;32.23;;;23.63;;
54983;SDS011;40884;53.562;9.940;2024-03-02T05:52:17;30.23;;;22.57;;
54983;SDS011;40884;53.562;9.940;2024-03-02T05:53:17;31.27;;;21.93;;
54983;SDS011;40884;53.562;9.940;2024-03-02T05:54:17;30.23;;;22.50;;
54983;SDS011;40884;53.562;9.940;2024-03-02T05:55:17;31.83;;;21.83;;